Airport View

Enter AWOS ICAO identifier for current METAR.

ex. KFNL

KBFI 212253Z 00000KT 10SM BKN032 19/11 A3008 RMK AO2 SLP184 T01890111

21 Sep 2019 23:41

Phone: 206-763-6904

Other Area AWOS: KRNT - KSEA - KPWT - KTIW

TAF KBFI 211730Z 2118/2218 14005KT P6SM BKN015 BKN020 FM211900 19004KT P6SM SCT010 BKN030 FM212200 20004KT P6SM SCT050 BKN250 FM220500 17004KT P6SM OVC050 FM221200 16007KT P6SM -RA SCT020 OVC025